sensor_id;sensor_type;location;lat;lon;timestamp;P1;durP1;ratioP1;P2;durP2;ratioP2
74510;SDS011;62991;50.040;18.400;2023-09-19T00:02:35;14.15;;;6.65;;
74510;SDS011;62991;50.040;18.400;2023-09-19T00:05:37;10.32;;;6.32;;
74510;SDS011;62991;50.040;18.400;2023-09-19T00:08:38;12.80;;;6.63;;
74510;SDS011;62991;50.040;18.400;2023-09-19T00:11:39;10.32;;;6.25;;
74510;SDS011;62991;50.040;18.400;2023-09-19T00:14:41;13.77;;;7.03;;
74510;SDS011;62991;50.040;18.400;2023-09-19T00:17:42;10.95;;;6.25;;
74510;SDS011;62991;50.040;18.400;2023-09-19T00:20:43;9.90;;;6.10;;
74510;SDS011;62991;50.040;18.400;2023-09-19T00:23:47;12.85;;;6.43;;
74510;SDS011;62991;50.040;18.400;2023-09-19T00:26:48;11.52;;;6.15;;
74510;SDS011;62991;50.040;18.400;2023-09-19T00:29:49;10.15;;;5.90;;
74510;SDS011;62991;50.040;18.400;2023-09-19T00:32:50;12.10;;;6.43;;
74510;SDS011;62991;50.040;18.400;2023-09-19T00:35:55;11.73;;;6.60;;
74510;SDS011;62991;50.040;18.400;2023-09-19T00:39:02;13.20;;;6.38;;
74510;SDS011;62991;50.040;18.400;2023-09-19T00:42:05;10.50;;;5.55;;
74510;SDS011;62991;50.040;18.400;2023-09-19T00:45:06;16.17;;;6.55;;
74510;SDS011;62991;50.040;18.400;2023-09-19T00:48:10;14.80;;;6.57;;
74510;SDS011;62991;50.040;18.400;2023-09-19T00:51:12;13.85;;;7.05;;
74510;SDS011;62991;50.040;18.400;2023-09-19T00:54:14;14.73;;;6.82;;
74510;SDS011;62991;50.040;18.400;2023-09-19T00:57:18;11.23;;;6.05;;
74510;SDS011;62991;50.040;18.400;2023-09-19T01:00:19;11.93;;;6.50;;
74510;SDS011;62991;50.040;18.400;2023-09-19T01:03:21;10.50;;;6.32;;
74510;SDS011;62991;50.040;18.400;2023-09-19T01:06:23;11.57;;;6.30;;
74510;SDS011;62991;50.040;18.400;2023-09-19T01:09:24;12.32;;;6.40;;
74510;SDS011;62991;50.040;18.400;2023-09-19T01:12:30;15.85;;;6.97;;
74510;SDS011;62991;50.040;18.400;2023-09-19T01:15:59;11.82;;;6.80;;
74510;SDS011;62991;50.040;18.400;2023-09-19T01:19:56;11.88;;;6.75;;
74510;SDS011;62991;50.040;18.400;2023-09-19T01:23:00;12.95;;;6.28;;
74510;SDS011;62991;50.040;18.400;2023-09-19T01:26:16;13.13;;;6.15;;
74510;SDS011;62991;50.040;18.400;2023-09-19T01:30:24;11.55;;;5.90;;
74510;SDS011;62991;50.040;18.400;2023-09-19T01:33:13;12.00;;;6.93;;
74510;SDS011;62991;50.040;18.400;2023-09-19T01:36:14;12.52;;;7.03;;
74510;SDS011;62991;50.040;18.400;2023-09-19T01:39:15;11.20;;;6.13;;
74510;SDS011;62991;50.040;18.400;2023-09-19T01:42:35;12.43;;;6.70;;
74510;SDS011;62991;50.040;18.400;2023-09-19T01:52:12;10.75;;;6.05;;
74510;SDS011;62991;50.040;18.400;2023-09-19T01:55:13;11.63;;;6.10;;
74510;SDS011;62991;50.040;18.400;2023-09-19T01:58:20;13.75;;;6.80;;
74510;SDS011;62991;50.040;18.400;2023-09-19T02:01:45;15.55;;;6.65;;
74510;SDS011;62991;50.040;18.400;2023-09-19T02:04:46;14.75;;;7.03;;
74510;SDS011;62991;50.040;18.400;2023-09-19T02:07:49;12.57;;;6.47;;
74510;SDS011;62991;50.040;18.400;2023-09-19T02:10:50;13.68;;;7.10;;
74510;SDS011;62991;50.040;18.400;2023-09-19T02:13:52;16.08;;;6.78;;
74510;SDS011;62991;50.040;18.400;2023-09-19T02:16:54;13.32;;;6.30;;
74510;SDS011;62991;50.040;18.400;2023-09-19T02:19:56;11.50;;;6.28;;
74510;SDS011;62991;50.040;18.400;2023-09-19T02:22:58;13.80;;;6.50;;
74510;SDS011;62991;50.040;18.400;2023-09-19T02:25:59;17.05;;;6.60;;
74510;SDS011;62991;50.040;18.400;2023-09-19T02:29:05;13.30;;;6.40;;
74510;SDS011;62991;50.040;18.400;2023-09-19T02:32:06;11.77;;;6.57;;
74510;SDS011;62991;50.040;18.400;2023-09-19T02:35:07;12.75;;;6.63;;
74510;SDS011;62991;50.040;18.400;2023-09-19T02:38:11;12.30;;;6.82;;
74510;SDS011;62991;50.040;18.400;2023-09-19T02:41:12;12.25;;;6.47;;
74510;SDS011;62991;50.040;18.400;2023-09-19T02:44:13;13.63;;;7.25;;
74510;SDS011;62991;50.040;18.400;2023-09-19T02:47:14;15.20;;;6.95;;
74510;SDS011;62991;50.040;18.400;2023-09-19T02:50:16;12.48;;;6.35;;
74510;SDS011;62991;50.040;18.400;2023-09-19T02:53:17;13.13;;;6.55;;
74510;SDS011;62991;50.040;18.400;2023-09-19T02:56:19;13.25;;;7.30;;
74510;SDS011;62991;50.040;18.400;2023-09-19T02:59:19;13.45;;;7.30;;
74510;SDS011;62991;50.040;18.400;2023-09-19T03:02:20;12.10;;;7.18;;
74510;SDS011;62991;50.040;18.400;2023-09-19T03:05:24;14.13;;;7.45;;
74510;SDS011;62991;50.040;18.400;2023-09-19T03:08:26;14.32;;;7.15;;
74510;SDS011;62991;50.040;18.400;2023-09-19T03:11:27;12.98;;;7.07;;
74510;SDS011;62991;50.040;18.400;2023-09-19T03:14:27;12.25;;;7.35;;
74510;SDS011;62991;50.040;18.400;2023-09-19T03:17:30;13.55;;;7.60;;
74510;SDS011;62991;50.040;18.400;2023-09-19T03:20:31;16.42;;;8.38;;
74510;SDS011;62991;50.040;18.400;2023-09-19T03:23:31;15.93;;;7.65;;
74510;SDS011;62991;50.040;18.400;2023-09-19T03:26:32;19.38;;;8.98;;
74510;SDS011;62991;50.040;18.400;2023-09-19T03:29:33;18.65;;;9.20;;
74510;SDS011;62991;50.040;18.400;2023-09-19T03:32:35;15.07;;;8.43;;
74510;SDS011;62991;50.040;18.400;2023-09-19T03:35:36;16.00;;;8.07;;
74510;SDS011;62991;50.040;18.400;2023-09-19T03:38:37;16.10;;;8.27;;
74510;SDS011;62991;50.040;18.400;2023-09-19T03:41:37;17.00;;;8.45;;
74510;SDS011;62991;50.040;18.400;2023-09-19T03:44:38;14.90;;;7.75;;
74510;SDS011;62991;50.040;18.400;2023-09-19T03:47:39;14.80;;;7.70;;
74510;SDS011;62991;50.040;18.400;2023-09-19T03:50:40;17.75;;;7.68;;
74510;SDS011;62991;50.040;18.400;2023-09-19T03:53:41;15.07;;;7.82;;
74510;SDS011;62991;50.040;18.400;2023-09-19T03:56:41;16.95;;;7.97;;
74510;SDS011;62991;50.040;18.400;2023-09-19T03:59:43;14.32;;;7.75;;
74510;SDS011;62991;50.040;18.400;2023-09-19T04:02:44;15.50;;;7.57;;
74510;SDS011;62991;50.040;18.400;2023-09-19T04:05:46;15.23;;;7.32;;
74510;SDS011;62991;50.040;18.400;2023-09-19T04:08:48;11.57;;;6.72;;
74510;SDS011;62991;50.040;18.400;2023-09-19T04:11:48;17.13;;;7.88;;
74510;SDS011;62991;50.040;18.400;2023-09-19T04:14:50;12.68;;;6.88;;
74510;SDS011;62991;50.040;18.400;2023-09-19T04:17:51;11.20;;;5.38;;
74510;SDS011;62991;50.040;18.400;2023-09-19T04:20:52;8.75;;;4.82;;
74510;SDS011;62991;50.040;18.400;2023-09-19T04:23:53;9.13;;;4.63;;
74510;SDS011;62991;50.040;18.400;2023-09-19T04:26:54;6.60;;;3.55;;
74510;SDS011;62991;50.040;18.400;2023-09-19T04:29:55;7.65;;;4.38;;
74510;SDS011;62991;50.040;18.400;2023-09-19T04:32:59;7.80;;;3.80;;
74510;SDS011;62991;50.040;18.400;2023-09-19T04:36:02;7.90;;;3.45;;
74510;SDS011;62991;50.040;18.400;2023-09-19T04:39:03;9.40;;;3.55;;
74510;SDS011;62991;50.040;18.400;2023-09-19T04:42:07;7.68;;;3.00;;
74510;SDS011;62991;50.040;18.400;2023-09-19T04:45:08;6.80;;;3.15;;
74510;SDS011;62991;50.040;18.400;2023-09-19T04:48:10;5.97;;;2.97;;
74510;SDS011;62991;50.040;18.400;2023-09-19T04:51:11;5.93;;;3.30;;
74510;SDS011;62991;50.040;18.400;2023-09-19T04:54:11;5.57;;;3.25;;
74510;SDS011;62991;50.040;18.400;2023-09-19T04:57:13;4.90;;;2.50;;
74510;SDS011;62991;50.040;18.400;2023-09-19T05:00:14;10.32;;;3.90;;
74510;SDS011;62991;50.040;18.400;2023-09-19T05:03:19;5.30;;;2.63;;
74510;SDS011;62991;50.040;18.400;2023-09-19T05:06:21;4.88;;;2.33;;
74510;SDS011;62991;50.040;18.400;2023-09-19T05:09:22;3.38;;;1.88;;
74510;SDS011;62991;50.040;18.400;2023-09-19T05:12:23;3.65;;;1.42;;
74510;SDS011;62991;50.040;18.400;2023-09-19T05:15:25;4.88;;;1.60;;
74510;SDS011;62991;50.040;18.400;2023-09-19T05:18:26;2.92;;;1.55;;
74510;SDS011;62991;50.040;18.400;2023-09-19T05:21:28;3.83;;;1.60;;
74510;SDS011;62991;50.040;18.400;2023-09-19T05:24:30;2.13;;;1.42;;
74510;SDS011;62991;50.040;18.400;2023-09-19T05:27:31;3.40;;;1.40;;
74510;SDS011;62991;50.040;18.400;2023-09-19T05:30:33;1.80;;;0.95;;
74510;SDS011;62991;50.040;18.400;2023-09-19T05:33:44;2.95;;;1.10;;
74510;SDS011;62991;50.040;18.400;2023-09-19T05:36:45;1.73;;;0.95;;
74510;SDS011;62991;50.040;18.400;2023-09-19T05:39:45;1.60;;;0.88;;
74510;SDS011;62991;50.040;18.400;2023-09-19T05:42:46;2.53;;;1.20;;
74510;SDS011;62991;50.040;18.400;2023-09-19T05:45:47;2.63;;;1.00;;
74510;SDS011;62991;50.040;18.400;2023-09-19T05:48:48;3.00;;;1.27;;
74510;SDS011;62991;50.040;18.400;2023-09-19T05:51:50;3.13;;;1.35;;
74510;SDS011;62991;50.040;18.400;2023-09-19T05:54:54;2.45;;;1.02;;
74510;SDS011;62991;50.040;18.400;2023-09-19T05:57:56;2.45;;;1.08;;
74510;SDS011;62991;50.040;18.400;2023-09-19T06:00:56;2.10;;;1.10;;
74510;SDS011;62991;50.040;18.400;2023-09-19T06:03:57;3.13;;;1.08;;
74510;SDS011;62991;50.040;18.400;2023-09-19T06:07:00;3.10;;;1.10;;
74510;SDS011;62991;50.040;18.400;2023-09-19T06:10:04;2.53;;;1.05;;
74510;SDS011;62991;50.040;18.400;2023-09-19T06:13:07;2.95;;;1.38;;
74510;SDS011;62991;50.040;18.400;2023-09-19T06:16:09;2.75;;;1.17;;
74510;SDS011;62991;50.040;18.400;2023-09-19T06:19:10;5.78;;;1.30;;
74510;SDS011;62991;50.040;18.400;2023-09-19T06:22:14;2.78;;;1.30;;
74510;SDS011;62991;50.040;18.400;2023-09-19T06:25:18;2.25;;;1.20;;
74510;SDS011;62991;50.040;18.400;2023-09-19T06:28:20;5.72;;;1.77;;
74510;SDS011;62991;50.040;18.400;2023-09-19T06:31:24;3.03;;;1.42;;
74510;SDS011;62991;50.040;18.400;2023-09-19T06:34:26;3.92;;;1.30;;
74510;SDS011;62991;50.040;18.400;2023-09-19T06:37:29;3.60;;;1.55;;
74510;SDS011;62991;50.040;18.400;2023-09-19T06:40:30;3.53;;;1.58;;
74510;SDS011;62991;50.040;18.400;2023-09-19T06:43:31;5.57;;;1.77;;
74510;SDS011;62991;50.040;18.400;2023-09-19T06:46:34;6.20;;;1.95;;
74510;SDS011;62991;50.040;18.400;2023-09-19T06:49:35;6.63;;;2.08;;
74510;SDS011;62991;50.040;18.400;2023-09-19T06:52:36;3.75;;;1.70;;
74510;SDS011;62991;50.040;18.400;2023-09-19T06:55:37;3.00;;;1.60;;
74510;SDS011;62991;50.040;18.400;2023-09-19T06:58:38;3.80;;;1.83;;
74510;SDS011;62991;50.040;18.400;2023-09-19T07:01:39;5.53;;;2.10;;
74510;SDS011;62991;50.040;18.400;2023-09-19T07:04:40;5.03;;;2.63;;
74510;SDS011;62991;50.040;18.400;2023-09-19T07:07:40;3.53;;;2.00;;
74510;SDS011;62991;50.040;18.400;2023-09-19T07:10:42;4.25;;;2.22;;
74510;SDS011;62991;50.040;18.400;2023-09-19T07:13:54;7.07;;;2.33;;
74510;SDS011;62991;50.040;18.400;2023-09-19T07:16:54;3.67;;;1.83;;
74510;SDS011;62991;50.040;18.400;2023-09-19T07:19:55;4.70;;;2.10;;
74510;SDS011;62991;50.040;18.400;2023-09-19T07:22:57;3.58;;;1.77;;
74510;SDS011;62991;50.040;18.400;2023-09-19T07:25:59;3.03;;;1.70;;
74510;SDS011;62991;50.040;18.400;2023-09-19T07:29:00;7.05;;;2.20;;
74510;SDS011;62991;50.040;18.400;2023-09-19T07:32:04;6.60;;;2.38;;
74510;SDS011;62991;50.040;18.400;2023-09-19T07:35:06;4.75;;;1.80;;
74510;SDS011;62991;50.040;18.400;2023-09-19T07:38:08;5.50;;;2.20;;
74510;SDS011;62991;50.040;18.400;2023-09-19T07:41:11;2.78;;;1.58;;
74510;SDS011;62991;50.040;18.400;2023-09-19T07:44:12;3.60;;;1.95;;
74510;SDS011;62991;50.040;18.400;2023-09-19T07:47:13;3.47;;;1.75;;
74510;SDS011;62991;50.040;18.400;2023-09-19T07:50:18;2.33;;;1.20;;
74510;SDS011;62991;50.040;18.400;2023-09-19T07:53:19;4.00;;;1.60;;
74510;SDS011;62991;50.040;18.400;2023-09-19T07:56:20;3.83;;;1.60;;
74510;SDS011;62991;50.040;18.400;2023-09-19T07:59:22;2.40;;;1.45;;
74510;SDS011;62991;50.040;18.400;2023-09-19T08:02:23;3.35;;;1.40;;
74510;SDS011;62991;50.040;18.400;2023-09-19T08:05:24;2.80;;;1.48;;
74510;SDS011;62991;50.040;18.400;2023-09-19T08:08:25;4.65;;;1.70;;
74510;SDS011;62991;50.040;18.400;2023-09-19T08:11:26;4.88;;;1.75;;
74510;SDS011;62991;50.040;18.400;2023-09-19T08:14:30;3.83;;;1.60;;
74510;SDS011;62991;50.040;18.400;2023-09-19T08:17:35;3.22;;;1.80;;
74510;SDS011;62991;50.040;18.400;2023-09-19T08:20:36;3.45;;;2.03;;
74510;SDS011;62991;50.040;18.400;2023-09-19T08:23:38;3.58;;;1.85;;
74510;SDS011;62991;50.040;18.400;2023-09-19T08:26:39;5.88;;;2.08;;
74510;SDS011;62991;50.040;18.400;2023-09-19T08:29:39;5.35;;;2.45;;
74510;SDS011;62991;50.040;18.400;2023-09-19T08:32:40;4.00;;;1.67;;
74510;SDS011;62991;50.040;18.400;2023-09-19T08:35:42;4.90;;;2.58;;
74510;SDS011;62991;50.040;18.400;2023-09-19T08:38:44;3.80;;;1.90;;
74510;SDS011;62991;50.040;18.400;2023-09-19T08:41:45;4.13;;;1.98;;
74510;SDS011;62991;50.040;18.400;2023-09-19T08:44:45;3.72;;;2.17;;
74510;SDS011;62991;50.040;18.400;2023-09-19T08:47:47;7.35;;;2.67;;
74510;SDS011;62991;50.040;18.400;2023-09-19T08:51:17;4.03;;;2.40;;
74510;SDS011;62991;50.040;18.400;2023-09-19T08:54:25;3.47;;;2.22;;
74510;SDS011;62991;50.040;18.400;2023-09-19T08:57:29;5.88;;;2.58;;
74510;SDS011;62991;50.040;18.400;2023-09-19T09:00:37;4.45;;;2.65;;
74510;SDS011;62991;50.040;18.400;2023-09-19T09:03:42;4.45;;;2.20;;
74510;SDS011;62991;50.040;18.400;2023-09-19T09:06:46;5.95;;;2.55;;
74510;SDS011;62991;50.040;18.400;2023-09-19T09:09:50;4.65;;;2.28;;
74510;SDS011;62991;50.040;18.400;2023-09-19T09:12:51;4.53;;;2.47;;
74510;SDS011;62991;50.040;18.400;2023-09-19T09:15:54;5.78;;;2.40;;
74510;SDS011;62991;50.040;18.400;2023-09-19T09:18:55;5.30;;;2.63;;
74510;SDS011;62991;50.040;18.400;2023-09-19T09:22:06;3.90;;;2.15;;
74510;SDS011;62991;50.040;18.400;2023-09-19T09:25:10;3.85;;;2.28;;
74510;SDS011;62991;50.040;18.400;2023-09-19T09:28:11;3.55;;;2.35;;
74510;SDS011;62991;50.040;18.400;2023-09-19T09:31:25;7.68;;;2.88;;
74510;SDS011;62991;50.040;18.400;2023-09-19T09:34:34;4.45;;;2.28;;
74510;SDS011;62991;50.040;18.400;2023-09-19T09:37:35;4.07;;;2.40;;
74510;SDS011;62991;50.040;18.400;2023-09-19T09:40:48;8.63;;;3.83;;
74510;SDS011;62991;50.040;18.400;2023-09-19T09:44:15;7.93;;;3.60;;
74510;SDS011;62991;50.040;18.400;2023-09-19T09:47:20;4.20;;;2.53;;
74510;SDS011;62991;50.040;18.400;2023-09-19T09:50:48;5.70;;;2.45;;
74510;SDS011;62991;50.040;18.400;2023-09-19T09:53:49;3.95;;;2.33;;
74510;SDS011;62991;50.040;18.400;2023-09-19T09:56:57;4.68;;;2.65;;
74510;SDS011;62991;50.040;18.400;2023-09-19T10:00:01;4.13;;;2.38;;
74510;SDS011;62991;50.040;18.400;2023-09-19T10:03:46;3.45;;;2.40;;
74510;SDS011;62991;50.040;18.400;2023-09-19T10:06:48;3.67;;;2.22;;
74510;SDS011;62991;50.040;18.400;2023-09-19T10:09:49;7.32;;;2.47;;
74510;SDS011;62991;50.040;18.400;2023-09-19T10:12:51;4.20;;;2.38;;
74510;SDS011;62991;50.040;18.400;2023-09-19T10:16:04;3.85;;;2.20;;
74510;SDS011;62991;50.040;18.400;2023-09-19T10:19:10;4.25;;;1.95;;
74510;SDS011;62991;50.040;18.400;2023-09-19T10:22:16;6.93;;;2.50;;
74510;SDS011;62991;50.040;18.400;2023-09-19T10:25:23;7.03;;;2.83;;
74510;SDS011;62991;50.040;18.400;2023-09-19T10:28:30;5.53;;;2.42;;
74510;SDS011;62991;50.040;18.400;2023-09-19T10:31:33;3.15;;;2.00;;
74510;SDS011;62991;50.040;18.400;2023-09-19T10:34:36;6.65;;;1.92;;
74510;SDS011;62991;50.040;18.400;2023-09-19T10:37:41;3.80;;;2.15;;
74510;SDS011;62991;50.040;18.400;2023-09-19T10:40:50;4.18;;;2.28;;
74510;SDS011;62991;50.040;18.400;2023-09-19T10:43:52;5.90;;;2.33;;
74510;SDS011;62991;50.040;18.400;2023-09-19T10:46:54;3.75;;;2.20;;
74510;SDS011;62991;50.040;18.400;2023-09-19T10:49:57;4.32;;;1.90;;
74510;SDS011;62991;50.040;18.400;2023-09-19T10:52:59;4.90;;;2.50;;
74510;SDS011;62991;50.040;18.400;2023-09-19T10:56:04;4.55;;;2.42;;
74510;SDS011;62991;50.040;18.400;2023-09-19T10:59:11;5.80;;;2.58;;
74510;SDS011;62991;50.040;18.400;2023-09-19T11:02:16;3.75;;;2.00;;
74510;SDS011;62991;50.040;18.400;2023-09-19T11:05:18;6.20;;;2.33;;
74510;SDS011;62991;50.040;18.400;2023-09-19T11:08:20;12.43;;;4.53;;
74510;SDS011;62991;50.040;18.400;2023-09-19T11:14:40;4.40;;;2.15;;
74510;SDS011;62991;50.040;18.400;2023-09-19T11:17:42;3.95;;;2.45;;
74510;SDS011;62991;50.040;18.400;2023-09-19T11:20:46;3.25;;;1.90;;
74510;SDS011;62991;50.040;18.400;2023-09-19T11:27:11;3.35;;;2.20;;
74510;SDS011;62991;50.040;18.400;2023-09-19T11:30:25;5.55;;;2.25;;
74510;SDS011;62991;50.040;18.400;2023-09-19T11:33:27;4.05;;;2.13;;
74510;SDS011;62991;50.040;18.400;2023-09-19T11:36:38;3.63;;;2.17;;
74510;SDS011;62991;50.040;18.400;2023-09-19T11:39:39;5.95;;;2.35;;
74510;SDS011;62991;50.040;18.400;2023-09-19T11:43:00;5.38;;;2.30;;
74510;SDS011;62991;50.040;18.400;2023-09-19T11:46:34;5.15;;;2.20;;
74510;SDS011;62991;50.040;18.400;2023-09-19T11:49:54;3.78;;;1.92;;
74510;SDS011;62991;50.040;18.400;2023-09-19T11:52:55;3.80;;;2.25;;
74510;SDS011;62991;50.040;18.400;2023-09-19T11:55:56;3.95;;;2.20;;
74510;SDS011;62991;50.040;18.400;2023-09-19T11:59:00;4.03;;;1.77;;
74510;SDS011;62991;50.040;18.400;2023-09-19T12:02:03;4.65;;;1.90;;
74510;SDS011;62991;50.040;18.400;2023-09-19T12:05:05;3.67;;;1.60;;
74510;SDS011;62991;50.040;18.400;2023-09-19T12:08:09;4.25;;;1.80;;
74510;SDS011;62991;50.040;18.400;2023-09-19T12:11:14;2.55;;;1.45;;
74510;SDS011;62991;50.040;18.400;2023-09-19T12:14:22;4.80;;;1.90;;
74510;SDS011;62991;50.040;18.400;2023-09-19T12:17:36;7.05;;;2.65;;
74510;SDS011;62991;50.040;18.400;2023-09-19T12:20:43;4.90;;;1.92;;
74510;SDS011;62991;50.040;18.400;2023-09-19T12:23:56;3.90;;;1.50;;
74510;SDS011;62991;50.040;18.400;2023-09-19T12:27:06;4.63;;;1.85;;
74510;SDS011;62991;50.040;18.400;2023-09-19T12:30:07;3.90;;;1.63;;
74510;SDS011;62991;50.040;18.400;2023-09-19T12:33:18;2.50;;;2.03;;
74510;SDS011;62991;50.040;18.400;2023-09-19T12:36:25;2.95;;;1.40;;
74510;SDS011;62991;50.040;18.400;2023-09-19T12:39:29;4.32;;;1.65;;
74510;SDS011;62991;50.040;18.400;2023-09-19T12:42:31;4.35;;;1.80;;
74510;SDS011;62991;50.040;18.400;2023-09-19T12:48:37;3.67;;;1.80;;
74510;SDS011;62991;50.040;18.400;2023-09-19T12:51:44;2.22;;;1.50;;
74510;SDS011;62991;50.040;18.400;2023-09-19T12:54:47;3.22;;;1.70;;
74510;SDS011;62991;50.040;18.400;2023-09-19T12:57:58;3.85;;;1.52;;
74510;SDS011;62991;50.040;18.400;2023-09-19T13:01:13;4.15;;;1.30;;
74510;SDS011;62991;50.040;18.400;2023-09-19T13:04:16;3.80;;;1.40;;
74510;SDS011;62991;50.040;18.400;2023-09-19T13:07:44;2.97;;;1.40;;
74510;SDS011;62991;50.040;18.400;2023-09-19T13:11:03;2.70;;;1.60;;
74510;SDS011;62991;50.040;18.400;2023-09-19T13:14:20;4.32;;;1.83;;
74510;SDS011;62991;50.040;18.400;2023-09-19T13:17:24;4.30;;;1.60;;
74510;SDS011;62991;50.040;18.400;2023-09-19T13:20:42;4.35;;;1.65;;
74510;SDS011;62991;50.040;18.400;2023-09-19T13:23:50;2.90;;;1.52;;
74510;SDS011;62991;50.040;18.400;2023-09-19T13:27:17;2.75;;;1.40;;
74510;SDS011;62991;50.040;18.400;2023-09-19T13:30:18;1.92;;;1.50;;
74510;SDS011;62991;50.040;18.400;2023-09-19T13:33:19;2.85;;;1.55;;
74510;SDS011;62991;50.040;18.400;2023-09-19T13:36:21;4.30;;;1.80;;
74510;SDS011;62991;50.040;18.400;2023-09-19T13:39:21;4.90;;;1.80;;
74510;SDS011;62991;50.040;18.400;2023-09-19T13:42:24;2.65;;;1.83;;
74510;SDS011;62991;50.040;18.400;2023-09-19T13:45:29;6.22;;;1.70;;
74510;SDS011;62991;50.040;18.400;2023-09-19T13:48:30;6.88;;;1.80;;
74510;SDS011;62991;50.040;18.400;2023-09-19T13:51:31;3.95;;;1.50;;
74510;SDS011;62991;50.040;18.400;2023-09-19T13:54:32;5.47;;;1.77;;
74510;SDS011;62991;50.040;18.400;2023-09-19T13:57:33;2.83;;;1.30;;
74510;SDS011;62991;50.040;18.400;2023-09-19T14:00:34;3.47;;;1.75;;
74510;SDS011;62991;50.040;18.400;2023-09-19T14:03:34;4.53;;;1.50;;
74510;SDS011;62991;50.040;18.400;2023-09-19T14:06:35;3.63;;;1.40;;
74510;SDS011;62991;50.040;18.400;2023-09-19T14:09:37;3.45;;;1.50;;
74510;SDS011;62991;50.040;18.400;2023-09-19T14:12:38;4.50;;;1.42;;
74510;SDS011;62991;50.040;18.400;2023-09-19T14:15:42;2.30;;;1.50;;
74510;SDS011;62991;50.040;18.400;2023-09-19T14:18:44;2.25;;;1.40;;
74510;SDS011;62991;50.040;18.400;2023-09-19T14:21:46;2.45;;;1.50;;
74510;SDS011;62991;50.040;18.400;2023-09-19T14:24:47;3.42;;;1.60;;
74510;SDS011;62991;50.040;18.400;2023-09-19T14:27:48;3.50;;;1.90;;
74510;SDS011;62991;50.040;18.400;2023-09-19T14:30:49;2.45;;;1.73;;
74510;SDS011;62991;50.040;18.400;2023-09-19T14:33:55;3.63;;;2.00;;
74510;SDS011;62991;50.040;18.400;2023-09-19T14:36:56;3.00;;;2.05;;
74510;SDS011;62991;50.040;18.400;2023-09-19T14:39:57;3.10;;;2.00;;
74510;SDS011;62991;50.040;18.400;2023-09-19T14:42:58;6.68;;;2.28;;
74510;SDS011;62991;50.040;18.400;2023-09-19T14:46:05;5.70;;;2.45;;
74510;SDS011;62991;50.040;18.400;2023-09-19T14:49:10;4.90;;;2.40;;
74510;SDS011;62991;50.040;18.400;2023-09-19T14:52:11;2.58;;;1.70;;
74510;SDS011;62991;50.040;18.400;2023-09-19T14:58:16;1.95;;;1.27;;
74510;SDS011;62991;50.040;18.400;2023-09-19T15:01:17;3.50;;;1.60;;
74510;SDS011;62991;50.040;18.400;2023-09-19T15:04:17;3.25;;;1.42;;
74510;SDS011;62991;50.040;18.400;2023-09-19T15:07:18;3.00;;;1.75;;
74510;SDS011;62991;50.040;18.400;2023-09-19T15:10:19;3.55;;;1.83;;
74510;SDS011;62991;50.040;18.400;2023-09-19T15:13:20;3.85;;;1.60;;
74510;SDS011;62991;50.040;18.400;2023-09-19T15:16:21;3.80;;;1.83;;
74510;SDS011;62991;50.040;18.400;2023-09-19T15:19:22;3.20;;;1.48;;
74510;SDS011;62991;50.040;18.400;2023-09-19T15:22:23;2.60;;;1.48;;
74510;SDS011;62991;50.040;18.400;2023-09-19T15:25:23;3.47;;;1.30;;
74510;SDS011;62991;50.040;18.400;2023-09-19T15:28:25;2.60;;;1.45;;
74510;SDS011;62991;50.040;18.400;2023-09-19T15:31:28;3.60;;;1.52;;
74510;SDS011;62991;50.040;18.400;2023-09-19T15:34:28;2.85;;;1.52;;
74510;SDS011;62991;50.040;18.400;2023-09-19T15:37:30;2.22;;;1.50;;
74510;SDS011;62991;50.040;18.400;2023-09-19T15:40:30;4.55;;;1.50;;
74510;SDS011;62991;50.040;18.400;2023-09-19T15:43:31;2.33;;;1.35;;
74510;SDS011;62991;50.040;18.400;2023-09-19T15:46:32;3.42;;;1.30;;
74510;SDS011;62991;50.040;18.400;2023-09-19T15:49:34;2.33;;;1.33;;
74510;SDS011;62991;50.040;18.400;2023-09-19T15:52:35;1.98;;;1.38;;
74510;SDS011;62991;50.040;18.400;2023-09-19T15:55:39;3.28;;;1.20;;
74510;SDS011;62991;50.040;18.400;2023-09-19T15:58:46;5.00;;;1.83;;
74510;SDS011;62991;50.040;18.400;2023-09-19T16:01:48;6.15;;;2.63;;
74510;SDS011;62991;50.040;18.400;2023-09-19T16:04:50;3.83;;;1.90;;
74510;SDS011;62991;50.040;18.400;2023-09-19T16:07:51;2.85;;;1.60;;
74510;SDS011;62991;50.040;18.400;2023-09-19T16:10:52;4.93;;;2.40;;
74510;SDS011;62991;50.040;18.400;2023-09-19T16:13:52;5.95;;;2.67;;
74510;SDS011;62991;50.040;18.400;2023-09-19T16:16:53;9.85;;;4.25;;
74510;SDS011;62991;50.040;18.400;2023-09-19T16:19:54;7.15;;;4.00;;
74510;SDS011;62991;50.040;18.400;2023-09-19T16:22:55;7.47;;;3.88;;
74510;SDS011;62991;50.040;18.400;2023-09-19T16:26:06;7.63;;;3.00;;
74510;SDS011;62991;50.040;18.400;2023-09-19T16:29:08;6.07;;;3.00;;
74510;SDS011;62991;50.040;18.400;2023-09-19T16:32:10;5.88;;;2.42;;
74510;SDS011;62991;50.040;18.400;2023-09-19T16:35:11;6.18;;;2.90;;
74510;SDS011;62991;50.040;18.400;2023-09-19T16:38:13;6.28;;;3.25;;
74510;SDS011;62991;50.040;18.400;2023-09-19T16:41:13;8.50;;;3.28;;
74510;SDS011;62991;50.040;18.400;2023-09-19T16:44:15;6.18;;;3.22;;
74510;SDS011;62991;50.040;18.400;2023-09-19T16:47:16;6.50;;;2.95;;
74510;SDS011;62991;50.040;18.400;2023-09-19T16:50:17;6.05;;;2.72;;
74510;SDS011;62991;50.040;18.400;2023-09-19T16:53:17;6.40;;;3.40;;
74510;SDS011;62991;50.040;18.400;2023-09-19T16:56:18;4.97;;;3.05;;
74510;SDS011;62991;50.040;18.400;2023-09-19T16:59:19;6.35;;;3.47;;
74510;SDS011;62991;50.040;18.400;2023-09-19T17:02:23;6.32;;;3.95;;
74510;SDS011;62991;50.040;18.400;2023-09-19T17:05:24;18.80;;;7.00;;
74510;SDS011;62991;50.040;18.400;2023-09-19T17:08:25;14.23;;;6.55;;
74510;SDS011;62991;50.040;18.400;2023-09-19T17:11:28;45.92;;;18.98;;
74510;SDS011;62991;50.040;18.400;2023-09-19T17:14:29;19.63;;;9.85;;
74510;SDS011;62991;50.040;18.400;2023-09-19T17:17:48;17.33;;;8.23;;
74510;SDS011;62991;50.040;18.400;2023-09-19T17:20:48;13.73;;;6.50;;
74510;SDS011;62991;50.040;18.400;2023-09-19T17:23:49;15.55;;;6.45;;
74510;SDS011;62991;50.040;18.400;2023-09-19T17:26:51;29.13;;;8.68;;
74510;SDS011;62991;50.040;18.400;2023-09-19T17:29:52;22.25;;;7.45;;
74510;SDS011;62991;50.040;18.400;2023-09-19T17:32:53;14.70;;;6.03;;
74510;SDS011;62991;50.040;18.400;2023-09-19T17:36:05;13.73;;;5.43;;
74510;SDS011;62991;50.040;18.400;2023-09-19T17:39:07;13.35;;;5.95;;
74510;SDS011;62991;50.040;18.400;2023-09-19T17:42:09;9.30;;;5.50;;
74510;SDS011;62991;50.040;18.400;2023-09-19T17:45:12;8.65;;;4.20;;
74510;SDS011;62991;50.040;18.400;2023-09-19T17:48:14;10.88;;;4.20;;
74510;SDS011;62991;50.040;18.400;2023-09-19T17:51:15;8.63;;;3.53;;
74510;SDS011;62991;50.040;18.400;2023-09-19T17:54:19;9.90;;;4.50;;
74510;SDS011;62991;50.040;18.400;2023-09-19T17:57:20;9.70;;;4.50;;
74510;SDS011;62991;50.040;18.400;2023-09-19T18:00:21;7.68;;;4.30;;
74510;SDS011;62991;50.040;18.400;2023-09-19T18:03:22;6.15;;;3.33;;
74510;SDS011;62991;50.040;18.400;2023-09-19T18:06:27;5.88;;;2.92;;
74510;SDS011;62991;50.040;18.400;2023-09-19T18:09:31;6.75;;;2.90;;
74510;SDS011;62991;50.040;18.400;2023-09-19T18:12:31;5.90;;;2.70;;
74510;SDS011;62991;50.040;18.400;2023-09-19T18:15:32;3.78;;;2.58;;
74510;SDS011;62991;50.040;18.400;2023-09-19T18:18:37;6.25;;;3.03;;
74510;SDS011;62991;50.040;18.400;2023-09-19T18:21:38;6.13;;;3.38;;
74510;SDS011;62991;50.040;18.400;2023-09-19T18:24:40;6.60;;;3.40;;
74510;SDS011;62991;50.040;18.400;2023-09-19T18:27:42;15.15;;;6.05;;